sensor_id;sensor_type;location;lat;lon;timestamp;pressure;altitude;pressure_sealevel;temperature;humidity
59289;BME280;45056;47.602;9.886;2022-07-11T00:00:50;93555.13;;;16.90;46.05
59289;BME280;45056;47.602;9.886;2022-07-11T00:03:18;93547.81;;;16.87;45.83
59289;BME280;45056;47.602;9.886;2022-07-11T00:05:46;93545.56;;;16.85;45.98
59289;BME280;45056;47.602;9.886;2022-07-11T00:08:15;93545.72;;;16.82;46.08
59289;BME280;45056;47.602;9.886;2022-07-11T00:10:43;93545.88;;;16.78;46.08
59289;BME280;45056;47.602;9.886;2022-07-11T00:13:13;93539.34;;;16.76;46.05
59289;BME280;45056;47.602;9.886;2022-07-11T00:15:41;93538.28;;;16.73;46.06
59289;BME280;45056;47.602;9.886;2022-07-11T00:18:09;93528.69;;;16.68;45.99
59289;BME280;45056;47.602;9.886;2022-07-11T00:20:37;93531.16;;;16.66;45.96
59289;BME280;45056;47.602;9.886;2022-07-11T00:23:05;93528.88;;;16.65;46.27
59289;BME280;45056;47.602;9.886;2022-07-11T00:25:34;93532.84;;;16.64;46.40
59289;BME280;45056;47.602;9.886;2022-07-11T00:28:02;93537.28;;;16.61;46.15
59289;BME280;45056;47.602;9.886;2022-07-11T00:30:31;93534.25;;;16.59;46.29
59289;BME280;45056;47.602;9.886;2022-07-11T00:32:59;93535.03;;;16.59;46.29
59289;BME280;45056;47.602;9.886;2022-07-11T00:35:27;93522.50;;;16.58;46.22
59289;BME280;45056;47.602;9.886;2022-07-11T00:37:55;93520.22;;;16.57;46.05
59289;BME280;45056;47.602;9.886;2022-07-11T00:40:23;93527.44;;;16.54;45.83
59289;BME280;45056;47.602;9.886;2022-07-11T00:42:53;93526.81;;;16.50;46.10
59289;BME280;45056;47.602;9.886;2022-07-11T00:45:21;93529.25;;;16.48;46.11
59289;BME280;45056;47.602;9.886;2022-07-11T00:47:49;93526.53;;;16.48;46.16
59289;BME280;45056;47.602;9.886;2022-07-11T00:50:17;93518.00;;;16.46;46.09
59289;BME280;45056;47.602;9.886;2022-07-11T00:52:45;93517.69;;;16.44;46.16
59289;BME280;45056;47.602;9.886;2022-07-11T00:55:13;93523.19;;;16.44;46.15
59289;BME280;45056;47.602;9.886;2022-07-11T00:57:42;93520.91;;;16.42;46.27
59289;BME280;45056;47.602;9.886;2022-07-11T01:00:12;93527.34;;;16.39;46.28
59289;BME280;45056;47.602;9.886;2022-07-11T01:02:41;93525.06;;;16.38;46.32
59289;BME280;45056;47.602;9.886;2022-07-11T01:05:09;93517.28;;;16.36;46.39
59289;BME280;45056;47.602;9.886;2022-07-11T01:07:38;93519.91;;;16.30;46.42
59289;BME280;45056;47.602;9.886;2022-07-11T01:10:07;93516.09;;;16.28;46.46
59289;BME280;45056;47.602;9.886;2022-07-11T01:12:35;93515.78;;;16.26;46.69
59289;BME280;45056;47.602;9.886;2022-07-11T01:15:04;93516.72;;;16.23;46.39
59289;BME280;45056;47.602;9.886;2022-07-11T01:17:35;93508.94;;;16.21;46.59
59289;BME280;45056;47.602;9.886;2022-07-11T01:20:04;93520.13;;;16.18;46.67
59289;BME280;45056;47.602;9.886;2022-07-11T01:22:36;93517.81;;;16.16;46.68
59289;BME280;45056;47.602;9.886;2022-07-11T01:25:09;93520.25;;;16.14;46.93
59289;BME280;45056;47.602;9.886;2022-07-11T01:27:38;93520.25;;;16.14;46.94
59289;BME280;45056;47.602;9.886;2022-07-11T01:30:08;93516.47;;;16.11;46.83
59289;BME280;45056;47.602;9.886;2022-07-11T01:32:36;93516.00;;;16.13;47.02
59289;BME280;45056;47.602;9.886;2022-07-11T01:35:05;93512.03;;;16.14;47.06
59289;BME280;45056;47.602;9.886;2022-07-11T01:37:33;93511.00;;;16.11;47.12
59289;BME280;45056;47.602;9.886;2022-07-11T01:40:01;93509.47;;;16.10;47.29
59289;BME280;45056;47.602;9.886;2022-07-11T01:42:31;93514.19;;;16.10;47.54
59289;BME280;45056;47.602;9.886;2022-07-11T01:44:59;93503.69;;;16.08;47.74
59289;BME280;45056;47.602;9.886;2022-07-11T01:47:27;93512.38;;;16.07;47.54
59289;BME280;45056;47.602;9.886;2022-07-11T01:49:55;93503.84;;;16.05;47.42
59289;BME280;45056;47.602;9.886;2022-07-11T01:52:23;93500.31;;;16.04;47.57
59289;BME280;45056;47.602;9.886;2022-07-11T01:54:51;93513.59;;;16.06;47.51
59289;BME280;45056;47.602;9.886;2022-07-11T01:57:19;93502.16;;;16.07;47.56
59289;BME280;45056;47.602;9.886;2022-07-11T01:59:48;93506.88;;;16.07;47.59
59289;BME280;45056;47.602;9.886;2022-07-11T02:02:16;93503.84;;;16.05;47.59
59289;BME280;45056;47.602;9.886;2022-07-11T02:04:45;93500.03;;;16.02;47.61
59289;BME280;45056;47.602;9.886;2022-07-11T02:07:13;93497.47;;;15.98;47.70
59289;BME280;45056;47.602;9.886;2022-07-11T02:10:01;93493.19;;;15.97;47.96
59289;BME280;45056;47.602;9.886;2022-07-11T02:12:29;93491.69;;;15.96;48.09
59289;BME280;45056;47.602;9.886;2022-07-11T02:14:58;93499.44;;;15.98;47.97
59289;BME280;45056;47.602;9.886;2022-07-11T02:17:26;93493.19;;;15.97;48.08
59289;BME280;45056;47.602;9.886;2022-07-11T02:19:54;93493.19;;;15.97;48.09
59289;BME280;45056;47.602;9.886;2022-07-11T02:22:22;93497.16;;;15.96;48.24
59289;BME280;45056;47.602;9.886;2022-07-11T02:24:51;93493.84;;;15.92;48.12
59289;BME280;45056;47.602;9.886;2022-07-11T02:27:19;93487.72;;;15.88;48.15
59289;BME280;45056;47.602;9.886;2022-07-11T02:29:47;93487.41;;;15.86;48.30
59289;BME280;45056;47.602;9.886;2022-07-11T02:32:16;93496.09;;;15.84;48.26
59289;BME280;45056;47.602;9.886;2022-07-11T02:34:44;93496.84;;;15.85;48.37
59289;BME280;45056;47.602;9.886;2022-07-11T02:37:12;93491.06;;;15.83;48.17
59289;BME280;45056;47.602;9.886;2022-07-11T02:39:40;93496.56;;;15.83;48.56
59289;BME280;45056;47.602;9.886;2022-07-11T02:42:08;93486.50;;;15.80;48.50
59289;BME280;45056;47.602;9.886;2022-07-11T02:44:36;93487.88;;;15.75;48.45
59289;BME280;45056;47.602;9.886;2022-07-11T02:47:04;93483.03;;;15.70;48.54
59289;BME280;45056;47.602;9.886;2022-07-11T02:49:33;93491.44;;;15.66;48.38
59289;BME280;45056;47.602;9.886;2022-07-11T02:52:01;93493.88;;;15.64;48.39
59289;BME280;45056;47.602;9.886;2022-07-11T02:54:30;93492.06;;;15.61;48.32
59289;BME280;45056;47.602;9.886;2022-07-11T02:56:58;93490.41;;;15.54;48.66
59289;BME280;45056;47.602;9.886;2022-07-11T02:59:27;93483.72;;;15.46;48.65
59289;BME280;45056;47.602;9.886;2022-07-11T03:01:55;93486.31;;;15.40;48.79
59289;BME280;45056;47.602;9.886;2022-07-11T03:04:23;93484.19;;;15.35;48.91
59289;BME280;45056;47.602;9.886;2022-07-11T03:06:52;93481.59;;;15.32;49.07
59289;BME280;45056;47.602;9.886;2022-07-11T03:09:20;93488.28;;;15.31;49.11
59289;BME280;45056;47.602;9.886;2022-07-11T03:11:48;93489.06;;;15.31;49.07
59289;BME280;45056;47.602;9.886;2022-07-11T03:14:16;93489.50;;;15.29;49.25
59289;BME280;45056;47.602;9.886;2022-07-11T03:16:44;93478.56;;;15.29;49.25
59289;BME280;45056;47.602;9.886;2022-07-11T03:19:13;93485.84;;;15.33;49.09
59289;BME280;45056;47.602;9.886;2022-07-11T03:21:41;93481.16;;;15.33;49.26
59289;BME280;45056;47.602;9.886;2022-07-11T03:24:10;93481.75;;;15.37;49.12
59289;BME280;45056;47.602;9.886;2022-07-11T03:26:39;93483.56;;;15.40;49.03
59289;BME280;45056;47.602;9.886;2022-07-11T03:29:06;93481.13;;;15.42;49.05
59289;BME280;45056;47.602;9.886;2022-07-11T03:31:34;93483.88;;;15.42;49.33
59289;BME280;45056;47.602;9.886;2022-07-11T03:34:02;93486.59;;;15.42;49.25
59289;BME280;45056;47.602;9.886;2022-07-11T03:36:30;93483.09;;;15.42;49.33
59289;BME280;45056;47.602;9.886;2022-07-11T03:38:58;93481.56;;;15.41;49.29
59289;BME280;45056;47.602;9.886;2022-07-11T03:41:28;93480.81;;;15.40;49.31
59289;BME280;45056;47.602;9.886;2022-07-11T03:43:56;93483.56;;;15.40;49.33
59289;BME280;45056;47.602;9.886;2022-07-11T03:46:24;93484.00;;;15.39;49.44
59289;BME280;45056;47.602;9.886;2022-07-11T03:48:52;93481.28;;;15.39;49.68
59289;BME280;45056;47.602;9.886;2022-07-11T03:51:19;93477.31;;;15.40;49.92
59289;BME280;45056;47.602;9.886;2022-07-11T03:53:48;93480.34;;;15.42;50.19
59289;BME280;45056;47.602;9.886;2022-07-11T03:56:15;93475.16;;;15.44;50.23
59289;BME280;45056;47.602;9.886;2022-07-11T03:58:50;93481.88;;;15.43;49.92
59289;BME280;45056;47.602;9.886;2022-07-11T04:01:18;93477.91;;;15.44;49.97
59289;BME280;45056;47.602;9.886;2022-07-11T04:03:47;93479.91;;;15.43;49.89
59289;BME280;45056;47.602;9.886;2022-07-11T04:06:16;93482.19;;;15.45;49.94
59289;BME280;45056;47.602;9.886;2022-07-11T04:08:44;93481.72;;;15.47;50.00
59289;BME280;45056;47.602;9.886;2022-07-11T04:11:12;93473.19;;;15.44;49.98
59289;BME280;45056;47.602;9.886;2022-07-11T04:13:40;93486.59;;;15.42;49.94
59289;BME280;45056;47.602;9.886;2022-07-11T04:16:09;93479.59;;;15.41;49.79
59289;BME280;45056;47.602;9.886;2022-07-11T04:18:37;93483.09;;;15.42;49.58
59289;BME280;45056;47.602;9.886;2022-07-11T04:21:05;93483.09;;;15.42;49.57
59289;BME280;45056;47.602;9.886;2022-07-11T04:23:33;93482.34;;;15.41;49.67
59289;BME280;45056;47.602;9.886;2022-07-11T04:26:01;93486.31;;;15.40;49.43
59289;BME280;45056;47.602;9.886;2022-07-11T04:28:29;93481.75;;;15.37;49.57
59289;BME280;45056;47.602;9.886;2022-07-11T04:30:59;93485.84;;;15.33;49.48
59289;BME280;45056;47.602;9.886;2022-07-11T04:33:28;93483.28;;;15.29;49.48
59289;BME280;45056;47.602;9.886;2022-07-11T04:35:56;93477.19;;;15.25;49.61
59289;BME280;45056;47.602;9.886;2022-07-11T04:38:24;93478.41;;;15.24;49.72
59289;BME280;45056;47.602;9.886;2022-07-11T04:40:52;93474.91;;;15.23;49.66
59289;BME280;45056;47.602;9.886;2022-07-11T04:43:20;93482.22;;;15.26;49.74
59289;BME280;45056;47.602;9.886;2022-07-11T04:45:48;93480.84;;;15.31;49.79
59289;BME280;45056;47.602;9.886;2022-07-11T04:48:16;93485.22;;;15.38;49.57
59289;BME280;45056;47.602;9.886;2022-07-11T04:50:45;93481.88;;;15.43;49.56
59289;BME280;45056;47.602;9.886;2022-07-11T04:53:13;93487.50;;;15.49;49.16
59289;BME280;45056;47.602;9.886;2022-07-11T04:55:41;93485.66;;;15.55;49.28
59289;BME280;45056;47.602;9.886;2022-07-11T04:58:09;93495.56;;;15.62;48.94
59289;BME280;45056;47.602;9.886;2022-07-11T05:00:37;93484.25;;;15.78;48.45
59289;BME280;45056;47.602;9.886;2022-07-11T05:03:05;93492.22;;;17.31;46.03
59289;BME280;45056;47.602;9.886;2022-07-11T05:05:33;93486.25;;;19.68;41.06
59289;BME280;45056;47.602;9.886;2022-07-11T05:08:03;93488.66;;;22.12;37.02
59289;BME280;45056;47.602;9.886;2022-07-11T05:10:32;93494.31;;;24.37;33.89
59289;BME280;45056;47.602;9.886;2022-07-11T05:13:02;93502.78;;;26.21;30.38
59289;BME280;45056;47.602;9.886;2022-07-11T05:15:31;93499.78;;;27.59;27.96
59289;BME280;45056;47.602;9.886;2022-07-11T05:17:59;93506.25;;;28.87;26.16
59289;BME280;45056;47.602;9.886;2022-07-11T05:20:27;93518.66;;;30.33;24.71
59289;BME280;45056;47.602;9.886;2022-07-11T05:22:55;93512.69;;;31.07;22.86
59289;BME280;45056;47.602;9.886;2022-07-11T05:25:25;93517.03;;;30.61;22.26
59289;BME280;45056;47.602;9.886;2022-07-11T05:27:53;93511.97;;;29.76;22.60
59289;BME280;45056;47.602;9.886;2022-07-11T05:30:21;93510.16;;;28.63;24.25
59289;BME280;45056;47.602;9.886;2022-07-11T05:32:49;93508.09;;;27.25;25.69
59289;BME280;45056;47.602;9.886;2022-07-11T05:35:17;93516.44;;;25.86;27.38
59289;BME280;45056;47.602;9.886;2022-07-11T05:37:45;93507.88;;;24.77;28.68
59289;BME280;45056;47.602;9.886;2022-07-11T05:40:13;93514.34;;;24.30;29.30
59289;BME280;45056;47.602;9.886;2022-07-11T05:42:42;93515.41;;;23.85;29.91
59289;BME280;45056;47.602;9.886;2022-07-11T05:45:10;93507.13;;;23.31;30.88
59289;BME280;45056;47.602;9.886;2022-07-11T05:47:38;93517.09;;;22.75;31.83
59289;BME280;45056;47.602;9.886;2022-07-11T05:50:07;93522.16;;;22.09;33.03
59289;BME280;45056;47.602;9.886;2022-07-11T05:52:36;93520.53;;;21.45;34.13
59289;BME280;45056;47.602;9.886;2022-07-11T05:55:05;93515.03;;;20.90;34.97
59289;BME280;45056;47.602;9.886;2022-07-11T05:57:33;93516.03;;;20.49;36.20
59289;BME280;45056;47.602;9.886;2022-07-11T06:00:03;93509.50;;;20.14;36.80
59289;BME280;45056;47.602;9.886;2022-07-11T06:02:31;93508.75;;;19.87;37.14
59289;BME280;45056;47.602;9.886;2022-07-11T06:04:59;93511.25;;;19.59;37.81
59289;BME280;45056;47.602;9.886;2022-07-11T06:07:27;93515.78;;;19.36;38.55
59289;BME280;45056;47.602;9.886;2022-07-11T06:10:13;93514.88;;;19.24;39.05
59289;BME280;45056;47.602;9.886;2022-07-11T06:12:41;93516.03;;;19.38;38.89
59289;BME280;45056;47.602;9.886;2022-07-11T06:15:11;93506.47;;;19.33;39.05
59289;BME280;45056;47.602;9.886;2022-07-11T06:17:39;93510.69;;;19.28;39.27
59289;BME280;45056;47.602;9.886;2022-07-11T06:20:09;93508.84;;;19.46;38.82
59289;BME280;45056;47.602;9.886;2022-07-11T06:22:38;93519.50;;;19.32;39.04
59289;BME280;45056;47.602;9.886;2022-07-11T06:25:07;93513.25;;;19.11;39.48
59289;BME280;45056;47.602;9.886;2022-07-11T06:27:36;93514.47;;;18.89;39.74
59289;BME280;45056;47.602;9.886;2022-07-11T06:30:04;93512.44;;;18.69;40.30
59289;BME280;45056;47.602;9.886;2022-07-11T06:32:34;93519.53;;;18.55;40.75
59289;BME280;45056;47.602;9.886;2022-07-11T06:35:02;93522.19;;;18.50;41.16
59289;BME280;45056;47.602;9.886;2022-07-11T06:37:30;93511.38;;;18.46;41.36
59289;BME280;45056;47.602;9.886;2022-07-11T06:39:59;93515.38;;;18.45;41.72
59289;BME280;45056;47.602;9.886;2022-07-11T06:42:27;93521.41;;;18.64;41.61
59289;BME280;45056;47.602;9.886;2022-07-11T06:44:55;93523.78;;;19.13;40.73
59289;BME280;45056;47.602;9.886;2022-07-11T06:47:23;93516.94;;;19.50;39.98
59289;BME280;45056;47.602;9.886;2022-07-11T06:49:53;93517.25;;;19.57;39.84
59289;BME280;45056;47.602;9.886;2022-07-11T06:52:21;93522.16;;;19.48;40.43
59289;BME280;45056;47.602;9.886;2022-07-11T06:54:49;93525.75;;;19.33;40.81
59289;BME280;45056;47.602;9.886;2022-07-11T06:57:17;93523.31;;;19.14;40.99
59289;BME280;45056;47.602;9.886;2022-07-11T06:59:45;93521.28;;;18.94;41.32
59289;BME280;45056;47.602;9.886;2022-07-11T07:02:13;93519.63;;;18.82;41.75
59289;BME280;45056;47.602;9.886;2022-07-11T07:04:41;93520.03;;;18.74;42.29
59289;BME280;45056;47.602;9.886;2022-07-11T07:07:11;93518.97;;;18.72;42.37
59289;BME280;45056;47.602;9.886;2022-07-11T07:09:39;93522.50;;;18.72;42.17
59289;BME280;45056;47.602;9.886;2022-07-11T07:12:07;93522.03;;;18.74;42.49
59289;BME280;45056;47.602;9.886;2022-07-11T07:14:35;93522.69;;;18.69;42.81
59289;BME280;45056;47.602;9.886;2022-07-11T07:17:03;93528.63;;;18.62;42.80
59289;BME280;45056;47.602;9.886;2022-07-11T07:19:32;93520.56;;;18.58;42.96
59289;BME280;45056;47.602;9.886;2022-07-11T07:22:00;93516.75;;;18.55;43.39
59289;BME280;45056;47.602;9.886;2022-07-11T07:24:29;93521.03;;;18.56;43.36
59289;BME280;45056;47.602;9.886;2022-07-11T07:26:58;93521.03;;;18.56;43.22
59289;BME280;45056;47.602;9.886;2022-07-11T07:29:26;93515.81;;;18.58;43.18
59289;BME280;45056;47.602;9.886;2022-07-11T07:31:54;93518.56;;;18.58;43.29
59289;BME280;45056;47.602;9.886;2022-07-11T07:34:22;93519.53;;;18.55;43.41
59289;BME280;45056;47.602;9.886;2022-07-11T07:36:50;93517.22;;;18.54;43.28
59289;BME280;45056;47.602;9.886;2022-07-11T07:39:18;93526.56;;;18.56;43.43
59289;BME280;45056;47.602;9.886;2022-07-11T07:41:48;93522.75;;;18.54;43.31
59289;BME280;45056;47.602;9.886;2022-07-11T07:44:16;93516.50;;;18.53;43.27
59289;BME280;45056;47.602;9.886;2022-07-11T07:46:44;93527.50;;;18.53;43.21
59289;BME280;45056;47.602;9.886;2022-07-11T07:49:12;93516.94;;;18.52;42.98
59289;BME280;45056;47.602;9.886;2022-07-11T07:51:41;93512.97;;;18.53;43.13
59289;BME280;45056;47.602;9.886;2022-07-11T07:54:09;93520.25;;;18.56;43.06
59289;BME280;45056;47.602;9.886;2022-07-11T07:56:36;93515.34;;;18.60;42.89
59289;BME280;45056;47.602;9.886;2022-07-11T07:59:06;93517.41;;;18.65;42.70
59289;BME280;45056;47.602;9.886;2022-07-11T08:01:34;93513.19;;;18.70;42.43
59289;BME280;45056;47.602;9.886;2022-07-11T08:04:09;93507.50;;;18.73;42.36
59289;BME280;45056;47.602;9.886;2022-07-11T08:06:38;93506.06;;;18.78;42.37
59289;BME280;45056;47.602;9.886;2022-07-11T08:09:06;93502.34;;;18.81;42.21
59289;BME280;45056;47.602;9.886;2022-07-11T08:11:35;93505.13;;;18.87;42.30
59289;BME280;45056;47.602;9.886;2022-07-11T08:14:05;93503.44;;;18.89;41.85
59289;BME280;45056;47.602;9.886;2022-07-11T08:16:35;93503.97;;;18.94;42.04
59289;BME280;45056;47.602;9.886;2022-07-11T08:19:05;93504.75;;;18.94;42.24
59289;BME280;45056;47.602;9.886;2022-07-11T08:21:33;93510.06;;;18.98;42.09
59289;BME280;45056;47.602;9.886;2022-07-11T08:24:03;93505.41;;;19.04;42.34
59289;BME280;45056;47.602;9.886;2022-07-11T08:26:32;93502.22;;;19.11;41.97
59289;BME280;45056;47.602;9.886;2022-07-11T08:29:01;93512.81;;;19.18;42.03
59289;BME280;45056;47.602;9.886;2022-07-11T08:31:31;93509.38;;;19.24;41.33
59289;BME280;45056;47.602;9.886;2022-07-11T08:34:00;93510.19;;;19.30;41.24
59289;BME280;45056;47.602;9.886;2022-07-11T08:36:28;93510.47;;;19.32;41.27
59289;BME280;45056;47.602;9.886;2022-07-11T08:38:58;93510.47;;;19.32;41.19
59289;BME280;45056;47.602;9.886;2022-07-11T08:41:27;93508.41;;;19.27;41.19
59289;BME280;45056;47.602;9.886;2022-07-11T08:43:57;93504.13;;;19.26;41.28
59289;BME280;45056;47.602;9.886;2022-07-11T08:46:27;93515.44;;;19.28;41.50
59289;BME280;45056;47.602;9.886;2022-07-11T08:48:59;93509.28;;;19.39;41.52
59289;BME280;45056;47.602;9.886;2022-07-11T08:51:30;93513.00;;;19.56;41.33
59289;BME280;45056;47.602;9.886;2022-07-11T08:53:59;93510.06;;;19.66;41.00
59289;BME280;45056;47.602;9.886;2022-07-11T08:56:27;93517.63;;;19.71;41.33
59289;BME280;45056;47.602;9.886;2022-07-11T08:58:58;93507.34;;;19.71;40.99
59289;BME280;45056;47.602;9.886;2022-07-11T09:01:29;93510.38;;;19.73;40.98
59289;BME280;45056;47.602;9.886;2022-07-11T09:04:01;93508.88;;;19.72;40.99
59289;BME280;45056;47.602;9.886;2022-07-11T09:06:29;93511.38;;;19.70;41.12
59289;BME280;45056;47.602;9.886;2022-07-11T09:08:58;93508.34;;;19.68;41.50
59289;BME280;45056;47.602;9.886;2022-07-11T09:11:27;93500.53;;;19.67;41.50
59289;BME280;45056;47.602;9.886;2022-07-11T09:14:21;93500.81;;;19.69;41.65
59289;BME280;45056;47.602;9.886;2022-07-11T09:16:55;93501.06;;;19.71;41.83
59289;BME280;45056;47.602;9.886;2022-07-11T09:19:28;93499.34;;;19.73;42.05
59289;BME280;45056;47.602;9.886;2022-07-11T09:22:02;93491.59;;;19.78;42.12
59289;BME280;45056;47.602;9.886;2022-07-11T09:24:57;93489.59;;;19.78;41.89
59289;BME280;45056;47.602;9.886;2022-07-11T09:27:46;93488.84;;;19.78;41.87
59289;BME280;45056;47.602;9.886;2022-07-11T09:30:18;93491.88;;;19.80;41.87
59289;BME280;45056;47.602;9.886;2022-07-11T09:32:56;93485.38;;;19.83;41.98
59289;BME280;45056;47.602;9.886;2022-07-11T09:35:30;93499.69;;;19.87;42.44
59289;BME280;45056;47.602;9.886;2022-07-11T09:38:02;93498.72;;;19.90;42.36
59289;BME280;45056;47.602;9.886;2022-07-11T09:40:30;93495.28;;;19.95;42.09
59289;BME280;45056;47.602;9.886;2022-07-11T09:43:00;93498.16;;;20.07;41.89
59289;BME280;45056;47.602;9.886;2022-07-11T09:45:31;93494.41;;;20.10;41.96
59289;BME280;45056;47.602;9.886;2022-07-11T09:48:08;93497.44;;;20.12;41.88
59289;BME280;45056;47.602;9.886;2022-07-11T09:50:40;93494.66;;;20.12;42.08
59289;BME280;45056;47.602;9.886;2022-07-11T09:53:22;93492.16;;;20.14;41.83
59289;BME280;45056;47.602;9.886;2022-07-11T09:55:50;93490.66;;;20.13;42.10
59289;BME280;45056;47.602;9.886;2022-07-11T09:58:19;93488.16;;;20.15;41.74
59289;BME280;45056;47.602;9.886;2022-07-11T10:00:56;93493.19;;;20.16;41.81
59289;BME280;45056;47.602;9.886;2022-07-11T10:03:25;93490.44;;;20.16;41.71
59289;BME280;45056;47.602;9.886;2022-07-11T10:05:54;93492.69;;;20.18;41.58
59289;BME280;45056;47.602;9.886;2022-07-11T10:08:22;93490.72;;;20.18;41.98
59289;BME280;45056;47.602;9.886;2022-07-11T10:10:53;93486.19;;;20.21;42.05
59289;BME280;45056;47.602;9.886;2022-07-11T10:13:22;93488.47;;;20.23;41.88
59289;BME280;45056;47.602;9.886;2022-07-11T10:15:55;93481.69;;;20.24;42.12
59289;BME280;45056;47.602;9.886;2022-07-11T10:18:35;93484.47;;;20.24;42.41
59289;BME280;45056;47.602;9.886;2022-07-11T10:21:18;93489.22;;;20.23;41.99
59289;BME280;45056;47.602;9.886;2022-07-11T10:24:00;93491.75;;;20.27;41.91
59289;BME280;45056;47.602;9.886;2022-07-11T10:26:42;93484.78;;;20.31;42.33
59289;BME280;45056;47.602;9.886;2022-07-11T10:29:28;93485.81;;;20.40;42.56
59289;BME280;45056;47.602;9.886;2022-07-11T10:32:05;93489.88;;;20.44;42.22
59289;BME280;45056;47.602;9.886;2022-07-11T10:34:35;93489.63;;;20.48;42.51
59289;BME280;45056;47.602;9.886;2022-07-11T10:37:06;93482.38;;;20.56;42.30
59289;BME280;45056;47.602;9.886;2022-07-11T10:39:36;93489.22;;;20.61;42.28
59289;BME280;45056;47.602;9.886;2022-07-11T10:42:06;93490.00;;;20.67;42.24
59289;BME280;45056;47.602;9.886;2022-07-11T10:44:50;93490.03;;;20.73;42.18
59289;BME280;45056;47.602;9.886;2022-07-11T10:47:32;93489.09;;;20.82;42.21
59289;BME280;45056;47.602;9.886;2022-07-11T10:50:10;93493.94;;;20.93;42.23
59289;BME280;45056;47.602;9.886;2022-07-11T10:52:56;93490.47;;;21.09;42.03
59289;BME280;45056;47.602;9.886;2022-07-11T10:55:34;93487.00;;;21.26;41.71
59289;BME280;45056;47.602;9.886;2022-07-11T10:58:14;93496.88;;;21.50;41.53
59289;BME280;45056;47.602;9.886;2022-07-11T11:00:48;93495.19;;;21.75;41.19
59289;BME280;45056;47.602;9.886;2022-07-11T11:03:17;93493.19;;;21.98;40.57
59289;BME280;45056;47.602;9.886;2022-07-11T11:05:47;93487.91;;;22.17;39.96
59289;BME280;45056;47.602;9.886;2022-07-11T11:08:43;93484.09;;;22.38;39.56
59289;BME280;45056;47.602;9.886;2022-07-11T11:11:36;93481.59;;;22.57;39.72
59289;BME280;45056;47.602;9.886;2022-07-11T11:14:19;93480.28;;;22.75;38.98
59289;BME280;45056;47.602;9.886;2022-07-11T11:16:53;93487.03;;;22.91;38.86
59289;BME280;45056;47.602;9.886;2022-07-11T11:19:53;93477.13;;;23.07;38.66
59289;BME280;45056;47.602;9.886;2022-07-11T11:22:23;93479.34;;;23.20;38.19
59289;BME280;45056;47.602;9.886;2022-07-11T11:24:55;93479.84;;;23.24;37.37
59289;BME280;45056;47.602;9.886;2022-07-11T11:27:26;93485.91;;;23.23;37.57
59289;BME280;45056;47.602;9.886;2022-07-11T11:29:55;93480.88;;;23.21;37.56
59289;BME280;45056;47.602;9.886;2022-07-11T11:32:30;93471.03;;;23.26;38.18
59289;BME280;45056;47.602;9.886;2022-07-11T11:34:58;93484.63;;;23.35;37.65
59289;BME280;45056;47.602;9.886;2022-07-11T11:37:26;93480.06;;;23.43;37.93
59289;BME280;45056;47.602;9.886;2022-07-11T11:39:59;93488.63;;;23.45;37.61
59289;BME280;45056;47.602;9.886;2022-07-11T11:42:28;93485.31;;;23.47;37.82
59289;BME280;45056;47.602;9.886;2022-07-11T11:44:58;93479.97;;;23.55;38.25
59289;BME280;45056;47.602;9.886;2022-07-11T11:47:30;93478.38;;;23.65;37.90
59289;BME280;45056;47.602;9.886;2022-07-11T11:49:59;93478.09;;;23.74;38.01
59289;BME280;45056;47.602;9.886;2022-07-11T11:52:27;93472.22;;;23.84;37.85
59289;BME280;45056;47.602;9.886;2022-07-11T11:54:58;93474.44;;;23.91;37.75
59289;BME280;45056;47.602;9.886;2022-07-11T11:57:28;93469.59;;;23.97;37.13
59289;BME280;45056;47.602;9.886;2022-07-11T11:59:56;93472.34;;;24.03;37.51
59289;BME280;45056;47.602;9.886;2022-07-11T12:02:27;93480.19;;;24.04;37.10
59289;BME280;45056;47.602;9.886;2022-07-11T12:04:56;93476.66;;;23.98;36.74
59289;BME280;45056;47.602;9.886;2022-07-11T12:07:28;93474.72;;;23.87;36.59
59289;BME280;45056;47.602;9.886;2022-07-11T12:09:58;93476.06;;;23.75;36.75
59289;BME280;45056;47.602;9.886;2022-07-11T12:12:31;93476.16;;;23.63;37.32
59289;BME280;45056;47.602;9.886;2022-07-11T12:15:32;93485.03;;;23.56;37.69
59289;BME280;45056;47.602;9.886;2022-07-11T12:18:21;93472.91;;;23.54;37.90
59289;BME280;45056;47.602;9.886;2022-07-11T12:20:50;93481.97;;;23.60;38.24
59289;BME280;45056;47.602;9.886;2022-07-11T12:23:19;93470.81;;;23.71;39.23
59289;BME280;45056;47.602;9.886;2022-07-11T12:25:50;93470.72;;;23.83;38.72
59289;BME280;45056;47.602;9.886;2022-07-11T12:28:18;93482.78;;;23.91;38.53
59289;BME280;45056;47.602;9.886;2022-07-11T12:30:54;93479.97;;;23.97;38.21
59289;BME280;45056;47.602;9.886;2022-07-11T12:33:24;93489.28;;;23.99;37.69
59289;BME280;45056;47.602;9.886;2022-07-11T12:35:57;93474.66;;;23.93;37.21
59289;BME280;45056;47.602;9.886;2022-07-11T12:38:46;93477.97;;;23.91;37.34
59289;BME280;45056;47.602;9.886;2022-07-11T12:41:19;93474.19;;;23.89;36.91
59289;BME280;45056;47.602;9.886;2022-07-11T12:43:49;93475.47;;;23.88;37.04
59289;BME280;45056;47.602;9.886;2022-07-11T12:46:36;93470.38;;;23.92;37.15
59289;BME280;45056;47.602;9.886;2022-07-11T12:49:07;93475.91;;;23.98;37.63
59289;BME280;45056;47.602;9.886;2022-07-11T12:51:39;93480.19;;;24.04;37.40
59289;BME280;45056;47.602;9.886;2022-07-11T12:54:10;93478.84;;;24.11;37.34
59289;BME280;45056;47.602;9.886;2022-07-11T12:56:50;93486.44;;;24.11;36.72
59289;BME280;45056;47.602;9.886;2022-07-11T12:59:21;93475.09;;;24.09;36.95
59289;BME280;45056;47.602;9.886;2022-07-11T13:01:56;93486.22;;;24.09;37.23
59289;BME280;45056;47.602;9.886;2022-07-11T13:04:30;93481.47;;;24.03;37.11
59289;BME280;45056;47.602;9.886;2022-07-11T13:07:18;93474.38;;;24.02;37.02
59289;BME280;45056;47.602;9.886;2022-07-11T13:10:15;93466.03;;;24.02;37.43
59289;BME280;45056;47.602;9.886;2022-07-11T13:12:48;93471.78;;;24.10;36.98
59289;BME280;45056;47.602;9.886;2022-07-11T13:15:18;93469.47;;;24.14;36.96
59289;BME280;45056;47.602;9.886;2022-07-11T13:17:48;93471.22;;;24.17;36.83